Latest Weather Observations for Darwin Airport

IDD60801

Issued at 6:31 am CST Monday 2 May 2016 (issued every 30 minutes, with the page automatically refreshed every 10 minutes)

About weather observations | Map of weather stations | Latest weather observations for NT | Other Formats
Station Details ID: 014015 Name: DARWIN AIRPORT Lat: -12.42 Lon: 130.89 Height: 30.4 m
Data from the previous 72 hours. | See also: Recent months at Darwin Airport
Date/Time
CST
Temp
°C
App
Temp
°C
Dew
Point
Rel
Hum
%
Delta-T
°C
Wind Press
QNH
hPa
Press
MSL
hPa
Rain
since 9 am
mm
Dir
 
Spd
km/h
Gust
km/h
Spd
kts
Gust
kts
02/06:00am 26.2 29.1 23.9 87 1.6 ENE 15 19 8 10 1010.3 1010.1 0.0
02/05:30am 26.1 29.4 23.8 87 1.6 E 13 17 7 9 1010.1 1009.9 0.0
02/05:00am 26.1 29.2 23.6 86 1.7 E 13 15 7 8 1009.8 1009.6 0.0
02/04:30am 25.9 28.6 23.4 86 1.7 E 15 19 8 10 1009.7 1009.5 0.0
02/04:00am 25.9 28.9 23.4 86 1.7 E 13 15 7 8 1009.7 1009.5 0.0
02/03:30am 25.9 28.9 23.4 86 1.7 ENE 13 15 7 8 1009.8 1009.6 0.0
02/03:00am 26.1 29.4 23.2 84 2.0 E 11 13 6 7 1009.7 1009.5 0.0
02/02:30am 26.2 29.2 23.3 84 2.0 E 13 15 7 8 1009.9 1009.7 0.0
02/02:00am 25.9 28.3 23.7 88 1.5 ESE 17 19 9 10 1010.2 1010.0 0.0
02/01:30am 26.0 28.5 23.8 88 1.5 SE 17 22 9 12 1010.6 1010.4 0.0
02/01:00am 26.1 29.2 23.6 86 1.7 ESE 13 15 7 8 1010.9 1010.7 0.0
02/12:30am 26.3 30.3 23.7 85 1.8 ESE 9 13 5 7 1011.1 1010.9 0.0
02/12:00am 26.5 29.5 23.4 83 2.1 SSE 13 17 7 9 1011.3 1011.1 0.0
 
Date/Time
CST
Temp
°C
App
Temp
°C
Dew
Point
Rel
Hum
%
Delta-T
°C
Wind Press
QNH
hPa
Press
MSL
hPa
Rain
since 9 am
mm
Dir
 
Spd
km/h
Gust
km/h
Spd
kts
Gust
kts
01/11:30pm 26.7 30.0 23.2 81 2.4 ESE 11 15 6 8 1011.6 1011.4 0.0
01/11:00pm 26.7 29.7 23.3 81 2.3 ESE 13 17 7 9 1012.1 1011.9 0.0
01/10:30pm 26.8 28.9 23.1 80 2.5 E 17 24 9 13 1012.0 1011.8 0.0
01/10:00pm 26.6 27.3 22.9 80 2.5 E 24 30 13 16 1011.9 1011.7 0.0
01/09:30pm 27.0 26.7 23.2 80 2.6 ENE 30 39 16 21 1011.9 1011.7 0.0
01/09:28pm 27.1 26.5 23.3 80 2.6 ENE 32 39 17 21 1011.9 1011.7 0.0
01/09:00pm 29.0 32.8 25.3 80 2.6 NNE 15 20 8 11 1011.9 1011.7 0.0
01/08:30pm 29.0 33.0 25.0 79 2.8 NNE 13 19 7 10 1011.1 1010.9 0.0
01/08:00pm 29.0 33.0 25.0 79 2.8 NNE 13 15 7 8 1010.6 1010.4 0.0
01/07:30pm 29.5 33.8 24.9 76 3.2 NNE 11 13 6 7 1010.3 1010.1 0.0
01/07:00pm 29.8 34.0 24.7 74 3.6 NNE 11 13 6 7 1010.2 1010.0 0.0
01/06:30pm 30.3 35.2 24.6 71 4.0 ENE 7 9 4 5 1009.9 1009.7 0.0
01/06:00pm 30.5 34.2 24.5 70 4.2 NNE 13 17 7 9 1009.6 1009.4 0.0
01/05:30pm 30.8 33.1 24.1 67 4.7 NNE 19 24 10 13 1008.8 1008.6 0.0
01/05:00pm 31.4 33.5 23.8 64 5.3 NNE 19 28 10 15 1008.4 1008.2 0.0
01/04:30pm 32.0 33.8 23.5 60 5.9 NNE 20 28 11 15 1008.6 1008.4 0.0
01/04:00pm 32.4 32.0 23.1 58 6.4 N 30 37 16 20 1008.3 1008.1 0.0
01/03:30pm 34.0 34.4 22.5 51 7.9 NNE 24 35 13 19 1008.3 1008.1 0.0
01/03:00pm 34.1 35.9 22.5 50 8.0 N 17 24 9 13 1008.8 1008.6 0.0
01/02:30pm 33.7 36.0 22.8 53 7.5 ENE 15 22 8 12 1009.2 1009.0 0.0
01/02:00pm 34.1 35.3 22.5 50 8.0 ENE 20 30 11 16 1009.5 1009.3 0.0
01/01:30pm 33.1 34.2 22.0 52 7.6 E 19 30 10 16 1009.8 1009.6 0.0
01/01:00pm 32.7 35.0 22.8 56 6.8 ENE 15 24 8 13 1010.3 1010.1 0.0
01/12:30pm 31.8 34.5 23.4 61 5.8 ENE 15 26 8 14 1010.7 1010.5 0.0
01/12:00pm 32.0 33.8 23.2 59 6.1 ENE 19 26 10 14 1011.0 1010.8 0.0
01/11:30am 31.0 32.9 22.8 61 5.6 ENE 17 30 9 16 1011.5 1011.3 0.0
01/11:00am 31.5 33.5 23.9 64 5.3 E 20 28 11 15 1011.7 1011.5 0.0
01/10:30am 30.4 33.1 23.4 66 4.8 E 15 20 8 11 1011.8 1011.6 0.0
01/10:00am 29.8 32.5 24.2 72 3.9 E 17 22 9 12 1012.1 1011.9 0.0
01/09:30am 28.7 32.5 24.7 79 2.8 ESE 13 17 7 9 1012.3 1012.1 0.0
01/09:00am 28.0 32.3 24.9 83 2.2 SE 11 15 6 8 1012.2 1012.0 5.0
01/08:30am 27.8 33.0 25.1 85 1.9 ESE 7 11 4 6 1012.2 1012.0 5.0
01/08:00am 27.0 31.4 25.0 89 1.4 ESE 11 13 6 7 1012.0 1011.8 5.0
01/07:30am 26.5 30.4 24.8 90 1.2 ESE 13 17 7 9 1011.5 1011.3 4.8
01/07:00am 26.4 31.4 24.8 91 1.1 ESE 7 11 4 6 1011.4 1011.2 4.8
01/06:30am 26.3 31.2 24.6 90 1.2 ESE 7 9 4 5 1011.1 1010.9 4.8
01/06:00am 25.9 32.2 24.7 93 0.8 CALM 0 0 0 0 1011.0 1010.8 4.8
01/05:30am 25.7 30.8 24.7 94 0.7 SE 6 9 3 5 1010.8 1010.6 4.8
01/05:00am 25.4 30.2 24.5 95 0.6 ESE 7 9 4 5 1010.8 1010.6 4.8
01/04:30am 25.1 29.0 24.2 95 0.6 E 11 13 6 7 1010.4 1010.2 4.6
01/04:00am 24.7 29.2 24.0 96 0.5 NNE 7 11 4 6 1011.0 1010.8 4.6
01/03:33am 24.6 27.0 23.6 94 0.7 ESE 17 24 9 13 1010.2 1010.0 4.6
01/03:30am 24.6 26.6 23.6 94 0.7 ESE 19 24 10 13 1010.1 1009.9 4.6
01/03:10am 24.1 25.8 23.1 94 0.7 ENE 19 24 10 13 1010.9 1010.7 3.0
01/03:00am 24.0 24.7 23.0 94 0.7 ENE 24 32 13 17 1011.1 1010.9 1.8
01/02:44am 24.1 25.2 23.1 94 0.7 E 22 32 12 17 1010.8 1010.6 1.6
01/02:30am 24.3 23.3 23.0 92 0.9 E 33 48 18 26 1011.3 1011.1 1.4
01/02:28am 24.3 23.0 23.1 93 0.8 E 35 48 19 26 1011.3 1011.1 1.2
01/02:22am 24.8 22.5 23.3 91 1.0 E 41 59 22 32 1011.3 1011.1 0.2
01/02:18am 25.4 22.6 23.2 88 1.5 ESE 43 59 23 32 1011.3 1011.1 0.0
01/02:11am 26.5 27.3 23.1 81 2.3 SE 24 52 13 28 1011.3 1011.1 0.0
01/02:09am 26.8 28.5 23.1 80 2.5 SE 19 41 10 22 1011.3 1011.1 0.0
01/02:00am 28.1 32.7 25.3 85 2.0 S 11 13 6 7 1011.2 1011.0 0.0
01/01:30am 28.4 33.2 25.1 82 2.3 ESE 9 13 5 7 1010.9 1010.7 0.0
01/01:00am 27.9 34.2 25.3 86 1.8 W 2 9 1 5 1010.7 1010.5 0.0
01/12:30am 27.7 33.6 25.3 87 1.7 WSW 4 7 2 4 1011.1 1010.9 0.0
01/12:00am 27.6 32.9 25.2 87 1.7 WSW 7 7 4 4 1011.2 1011.0 0.0
 
Date/Time
CST
Temp
°C
App
Temp
°C
Dew
Point
Rel
Hum
%
Delta-T
°C
Wind Press
QNH
hPa
Press
MSL
hPa
Rain
since 9 am
mm
Dir
 
Spd
km/h
Gust
km/h
Spd
kts
Gust
kts
30/11:30pm 28.7 33.4 25.0 80 2.6 SSW 9 11 5 6 1011.1 1010.9 0.0
30/11:00pm 29.0 33.7 24.9 78 2.9 SW 9 13 5 7 1011.0 1010.8 0.0
30/10:30pm 28.4 33.8 25.4 84 2.1 W 7 9 4 5 1011.1 1010.9 0.0
30/10:00pm 29.0 33.9 25.2 80 2.7 W 9 11 5 6 1011.2 1011.0 0.0
30/09:30pm 29.2 34.0 25.1 78 2.9 W 9 11 5 6 1011.2 1011.0 0.0
30/09:00pm 29.5 33.4 24.8 76 3.3 WSW 13 17 7 9 1010.9 1010.7 0.0
30/08:30pm 29.4 33.6 24.7 76 3.3 WSW 11 13 6 7 1010.8 1010.6 0.0
30/08:00pm 29.5 33.3 24.0 72 3.8 W 11 15 6 8 1010.4 1010.2 0.0
30/07:30pm 29.7 33.1 24.1 72 3.9 WSW 13 17 7 9 1010.2 1010.0 0.0
30/07:00pm 30.2 33.2 24.0 69 4.3 WNW 15 17 8 9 1010.0 1009.8 0.0
30/06:30pm 30.5 33.7 23.7 67 4.7 WNW 13 17 7 9 1009.6 1009.4 0.0
30/06:00pm 31.0 33.2 23.3 63 5.3 WNW 17 20 9 11 1009.1 1008.9 0.0
30/05:30pm 31.2 33.6 23.7 64 5.2 WNW 17 22 9 12 1008.7 1008.5 0.0
30/05:00pm 31.1 33.4 23.4 63 5.3 WNW 17 20 9 11 1008.3 1008.0 0.0
30/04:30pm 31.3 34.1 23.7 64 5.3 NNW 15 22 8 12 1008.2 1007.9 0.0
30/04:00pm 32.2 34.7 23.2 59 6.2 NNW 15 19 8 10 1008.3 1008.0 0.0
30/03:30pm 31.9 34.1 23.2 60 6.0 NNW 17 20 9 11 1008.4 1008.1 0.0
30/03:00pm 32.0 34.5 23.8 62 5.7 NW 17 24 9 13 1008.8 1008.6 0.0
30/02:30pm 32.5 35.1 23.9 60 6.0 NNW 17 20 9 11 1009.1 1008.9 0.0
30/02:00pm 31.1 34.0 24.5 68 4.6 NW 17 22 9 12 1009.7 1009.5 0.0
30/01:30pm 33.1 35.1 23.6 57 6.6 NW 19 26 10 14 1010.1 1009.9 0.0
30/01:00pm 32.0 34.2 24.0 62 5.6 WNW 19 24 10 13 1010.7 1010.5 0.0
30/12:30pm 33.4 34.3 22.0 51 7.8 WNW 20 26 11 14 1011.4 1011.2 0.0
30/12:00pm 33.0 36.0 22.0 52 7.5 E 9 19 5 10 1011.9 1011.7 0.0
30/11:30am 33.1 34.7 22.1 52 7.5 ENE 17 24 9 13 1012.4 1012.2 0.0
30/11:00am 32.2 35.5 22.6 57 6.6 ENE 9 13 5 7 1012.9 1012.7 0.0
30/10:30am 31.6 34.5 22.4 58 6.3 E 11 15 6 8 1013.3 1013.1 0.0
30/10:00am 31.2 35.2 23.7 64 5.2 E 9 15 5 8 1013.3 1013.1 0.0
30/09:30am 29.8 34.1 24.2 72 3.9 SE 9 13 5 7 1013.3 1013.1 0.0
30/09:00am 29.3 33.7 24.4 75 3.4 S 9 11 5 6 1013.0 1012.8 0.0
30/08:30am 28.7 33.0 24.2 76 3.1 SE 9 13 5 7 1012.8 1012.6 0.0
30/08:00am 27.5 31.4 24.2 82 2.3 ESE 11 13 6 7 1012.5 1012.3 0.0
30/07:30am 26.3 29.7 24.1 88 1.5 ESE 13 15 7 8 1012.3 1012.1 0.0
30/07:00am 25.7 29.6 24.3 92 1.0 E 11 13 6 7 1012.2 1012.0 0.0
30/06:30am 25.6 30.0 24.4 93 0.8 SE 9 11 5 6 1011.6 1011.4 0.0
30/06:00am 25.4 30.3 24.4 94 0.7 ESE 6 7 3 4 1011.3 1011.1 0.0
30/05:30am 25.6 30.1 24.6 94 0.7 ESE 9 11 5 6 1011.2 1011.0 0.0
30/05:00am 25.8 29.9 24.6 93 0.8 E 11 11 6 6 1011.1 1010.9 0.0
30/04:30am 25.9 30.3 24.5 92 1.0 ESE 9 9 5 5 1010.7 1010.5 0.0
30/04:00am 26.0 30.9 24.6 92 1.0 S 7 9 4 5 1010.7 1010.5 0.0
30/03:30am 26.6 31.1 24.6 89 1.4 SW 9 11 5 6 1010.4 1010.2 0.0
30/03:00am 26.1 30.9 24.5 91 1.1 WSW 7 9 4 5 1010.5 1010.3 0.0
30/02:30am 26.3 31.2 24.6 90 1.2 WSW 7 7 4 4 1010.5 1010.3 0.0
30/02:00am 26.7 31.6 24.7 89 1.4 WSW 7 9 4 5 1010.6 1010.4 0.0
30/01:30am 27.3 31.8 24.6 85 1.9 WSW 9 11 5 6 1010.9 1010.7 0.0
30/01:00am 28.2 32.5 24.3 79 2.7 SW 9 11 5 6 1011.1 1010.9 0.0
30/12:30am 28.5 32.4 24.3 78 2.9 WSW 11 11 6 6 1011.3 1011.1 0.0
30/12:00am 28.5 32.4 24.3 78 2.9 WSW 11 13 6 7 1011.5 1011.3 0.0
 
Date/Time
CST
Temp
°C
App
Temp
°C
Dew
Point
Rel
Hum
%
Delta-T
°C
Wind Press
QNH
hPa
Press
MSL
hPa
Rain
since 9 am
mm
Dir
 
Spd
km/h
Gust
km/h
Spd
kts
Gust
kts
29/11:30pm 28.7 33.1 24.4 77 3.0 WSW 9 11 5 6 1011.9 1011.7 0.0
29/11:00pm 28.9 33.4 24.6 77 3.0 WSW 9 11 5 6 1012.0 1011.8 0.0
29/10:30pm 28.6 33.3 24.9 80 2.6 WNW 9 15 5 8 1012.2 1012.0 0.0
29/10:00pm 28.7 32.9 24.8 79 2.7 WNW 11 11 6 6 1012.3 1012.1 0.0
29/09:30pm 28.3 33.0 25.0 82 2.3 N 9 11 5 6 1012.4 1012.2 0.0
29/09:00pm 29.2 33.5 24.9 77 3.0 NNW 11 13 6 7 1012.3 1012.1 0.0
29/08:30pm 29.7 34.1 24.4 73 3.7 NW 9 13 5 7 1012.0 1011.8 0.0
29/08:00pm 29.7 33.6 24.2 72 3.8 WNW 11 13 6 7 1011.7 1011.5 0.0
29/07:30pm 29.8 33.5 24.5 73 3.7 WNW 13 15 7 8 1011.2 1011.0 0.0
29/07:00pm 29.9 33.4 24.2 71 4.0 WNW 13 17 7 9 1010.8 1010.6 0.0
29/06:30pm 30.0 32.9 23.8 69 4.3 WNW 15 19 8 10 1010.5 1010.3 0.0
29/06:00pm 30.5 32.9 23.7 67 4.7 NW 17 20 9 11 1010.2 1010.0 0.0
29/05:30pm 31.0 33.4 23.6 64 5.1 NW 17 20 9 11 1009.9 1009.7 0.0
29/05:00pm 30.8 34.5 24.5 69 4.4 W 13 15 7 8 1009.5 1009.3 0.0
29/04:30pm 31.7 34.3 24.6 66 5.0 WNW 19 24 10 13 1009.3 1009.1 0.0
29/04:00pm 32.9 35.1 23.2 56 6.7 WNW 17 20 9 11 1009.0 1008.8 0.0
29/03:30pm 32.3 34.5 23.2 58 6.3 NW 17 22 9 12 1009.2 1009.0 0.0
29/03:00pm 32.3 34.8 22.5 56 6.7 NNW 13 19 7 10 1009.5 1009.3 0.0
29/02:30pm 33.1 36.9 23.5 57 6.7 NW 9 11 5 6 1009.7 1009.5 0.0
29/02:00pm 32.8 36.7 23.6 58 6.4 NNW 9 17 5 9 1010.1 1009.9 0.0
29/01:30pm 31.0 33.3 23.5 64 5.2 NNE 17 20 9 11 1010.4 1010.2 0.0
29/01:00pm 29.2 31.7 24.5 76 3.3 NE 19 28 10 15 1010.9 1010.7 0.0
29/12:30pm 31.9 35.9 23.7 62 5.7 NNW 9 13 5 7 1011.3 1011.1 0.0
29/12:00pm 30.1 34.7 24.1 70 4.2 WNW 7 11 4 6 1012.0 1011.8 0.0
29/11:30am 31.1 34.6 22.8 61 5.7 SSW 9 15 5 8 1012.4 1012.2 0.0
29/11:00am 31.2 34.9 23.2 62 5.5 SSE 9 15 5 8 1012.9 1012.7 0.0
29/10:30am 30.6 33.8 23.0 64 5.2 SSE 11 17 6 9 1013.0 1012.8 0.0
29/10:00am 30.7 35.0 24.3 68 4.5 S 9 11 5 6 1013.0 1012.8 0.0
29/09:30am 30.4 34.8 24.5 70 4.1 SSE 9 11 5 6 1012.8 1012.6 0.0
29/09:00am 29.6 34.2 24.7 75 3.4 SE 9 13 5 7 1012.7 1012.5 0.0
29/08:30am 28.8 32.9 24.6 78 2.9 SW 11 13 6 7 1012.5 1012.3 0.0
29/08:00am 27.8 32.4 24.2 81 2.5 SW 7 9 4 5 1012.2 1012.0 0.0
29/07:30am 27.0 31.6 24.1 84 2.0 SW 7 9 4 5 1012.0 1011.8 0.0
29/07:00am 26.9 31.4 24.0 84 2.0 SW 7 9 4 5 1011.7 1011.5 0.0

Other Formats:

Comma delimited format used in spreadsheet applications
http://www.bom.gov.au/fwo/IDD60801/IDD60801.94120.axf

JavaScript Object Notation format (JSON) in row-major order
http://www.bom.gov.au/fwo/IDD60801/IDD60801.94120.json